createdAt,value
2018-08-25T00:00:30.741Z,101269.53
2018-08-25T00:01:30.979Z,101269.27
2018-08-25T00:02:31.331Z,101269.01
2018-08-25T00:03:31.975Z,101269.48
2018-08-25T00:04:32.051Z,101269.13
2018-08-25T00:05:32.399Z,101269.47
2018-08-25T00:06:32.614Z,101269.51
2018-08-25T00:07:33.416Z,101269.16
2018-08-25T00:08:33.656Z,101268.94
2018-08-25T00:09:33.904Z,101268.42
2018-08-25T00:10:34.265Z,101268.03
2018-08-25T00:11:34.492Z,101267.09
2018-08-25T00:12:34.883Z,101266.95
2018-08-25T00:13:35.483Z,101266.42
2018-08-25T00:14:35.731Z,101266.45
2018-08-25T00:15:36.099Z,101266.48
2018-08-25T00:16:36.417Z,101266.02
2018-08-25T00:17:36.665Z,101265.88
2018-08-25T00:18:37.031Z,101265.98
2018-08-25T00:19:37.257Z,101265.59
2018-08-25T00:20:37.637Z,101265.19
2018-08-25T00:21:37.997Z,101265.05
2018-08-25T00:22:38.193Z,101264.44
2018-08-25T00:23:38.400Z,101263.45
2018-08-25T00:24:38.593Z,101263.24
2018-08-25T00:25:39.364Z,101262.48
2018-08-25T00:26:40.019Z,101262.14
2018-08-25T00:27:40.342Z,101261.45
2018-08-25T00:28:40.633Z,101261.20
2018-08-25T00:29:40.820Z,101260.53
2018-08-25T00:30:41.220Z,101259.66
2018-08-25T00:31:41.455Z,101258.00
2018-08-25T00:32:42.257Z,101256.28
2018-08-25T00:33:43.013Z,101255.22
2018-08-25T00:34:43.291Z,101253.77
2018-08-25T00:35:43.545Z,101252.73
2018-08-25T00:36:43.801Z,101251.56
2018-08-25T00:37:44.157Z,101250.50
2018-08-25T00:38:44.930Z,101250.27
2018-08-25T00:39:45.194Z,101249.70
2018-08-25T00:40:45.405Z,101248.88
2018-08-25T00:41:45.810Z,101248.40
2018-08-25T00:41:54.545Z,101241.68
2018-08-25T00:42:54.872Z,101241.61
2018-08-25T00:43:55.151Z,101241.94
2018-08-25T00:44:55.331Z,101242.38
2018-08-25T00:45:55.732Z,101242.81
2018-08-25T00:46:56.529Z,101243.62
2018-08-25T00:47:56.699Z,101243.29
2018-08-25T00:48:56.921Z,101243.45
2018-08-25T00:49:57.545Z,101244.39
2018-08-25T00:50:57.751Z,101244.31
2018-08-25T00:51:57.642Z,101244.66
2018-08-25T00:52:58.858Z,101245.00
2018-08-25T00:53:59.048Z,101245.00
2018-08-25T00:54:59.189Z,101245.51
2018-08-25T00:55:59.862Z,101245.46
2018-08-25T00:57:00.262Z,101245.46
2018-08-25T00:58:00.488Z,101245.84
2018-08-25T00:59:00.684Z,101246.27
2018-08-25T01:00:00.900Z,101245.92
2018-08-25T01:01:01.125Z,101245.41
2018-08-25T01:02:01.348Z,101244.34
2018-08-25T01:03:01.622Z,101243.91
2018-08-25T01:04:02.137Z,101242.89
2018-08-25T01:05:02.358Z,101242.38
2018-08-25T01:06:02.767Z,101241.34
2018-08-25T01:07:03.045Z,101239.63
2018-08-25T01:08:03.208Z,101238.31
2018-08-25T01:09:03.488Z,101236.05
2018-08-25T01:10:03.841Z,101234.27
2018-08-25T01:11:04.085Z,101232.41
2018-08-25T01:12:04.378Z,101231.05
2018-08-25T01:13:04.837Z,101229.22
2018-08-25T01:14:05.063Z,101228.45
2018-08-25T01:15:05.323Z,101227.16
2018-08-25T01:16:05.848Z,101226.09
2018-08-25T01:17:05.826Z,101224.70
2018-08-25T01:18:06.095Z,101223.47
2018-08-25T01:19:06.316Z,101222.25
2018-08-25T01:20:06.607Z,101221.33
2018-08-25T01:21:07.052Z,101220.03
2018-08-25T01:22:07.352Z,101218.89
2018-08-25T01:23:07.893Z,101217.20
2018-08-25T01:24:08.216Z,101216.33
2018-08-25T01:25:08.457Z,101214.84
2018-08-25T01:26:09.035Z,101213.03
2018-08-25T01:27:09.234Z,101211.56
2018-08-25T01:27:17.911Z,101196.06
2018-08-25T01:28:19.132Z,101195.47
2018-08-25T01:29:19.413Z,101195.39
2018-08-25T01:30:19.563Z,101195.14
2018-08-25T01:31:19.771Z,101195.10
2018-08-25T01:32:20.123Z,101194.39
2018-08-25T01:33:20.716Z,101194.23
2018-08-25T01:34:20.914Z,101193.69
2018-08-25T01:35:21.120Z,101193.41
2018-08-25T01:36:21.389Z,101193.30
2018-08-25T01:37:21.666Z,101192.38
2018-08-25T01:38:21.894Z,101192.23
2018-08-25T01:39:22.219Z,101191.84
2018-08-25T01:40:22.679Z,101191.20
2018-08-25T01:41:22.968Z,101190.98
2018-08-25T01:42:23.202Z,101190.37
2018-08-25T01:43:23.507Z,101189.98
2018-08-25T01:44:24.051Z,101189.24
2018-08-25T01:45:24.494Z,101189.19
2018-08-25T01:46:24.690Z,101189.14
2018-08-25T01:47:25.033Z,101189.09
2018-08-25T01:48:25.643Z,101189.28
2018-08-25T01:49:25.878Z,101189.06
2018-08-25T01:50:26.108Z,101189.33
2018-08-25T01:51:26.341Z,101189.70
2018-08-25T01:52:26.878Z,101189.47
2018-08-25T01:53:27.175Z,101189.75
2018-08-25T01:54:27.452Z,101189.41
2018-08-25T01:55:27.672Z,101189.16
2018-08-25T01:56:27.914Z,101188.34
2018-08-25T01:57:28.110Z,101187.52
2018-08-25T01:58:28.452Z,101186.00
2018-08-25T01:59:28.683Z,101184.71
2018-08-25T02:00:29.263Z,101183.45
2018-08-25T02:01:29.795Z,101181.60
2018-08-25T02:02:30.068Z,101180.44
2018-08-25T02:03:30.245Z,101178.84
2018-08-25T02:04:30.787Z,101178.02
2018-08-25T02:05:31.076Z,101177.11
2018-08-25T02:06:31.435Z,101175.62
2018-08-25T02:07:32.196Z,101174.96
2018-08-25T02:08:32.790Z,101173.47
2018-08-25T02:09:33.014Z,101172.42
2018-08-25T02:10:33.223Z,101170.66
2018-08-25T02:10:41.983Z,101155.12
2018-08-25T02:11:43.130Z,101154.70
2018-08-25T02:12:43.378Z,101154.63
2018-08-25T02:13:42.946Z,101154.66
2018-08-25T02:14:44.272Z,101154.16
2018-08-25T02:15:44.590Z,101154.12
2018-08-25T02:16:44.834Z,101153.33
2018-08-25T02:17:45.321Z,101152.91
2018-08-25T02:18:45.601Z,101152.14
2018-08-25T02:19:45.834Z,101151.80
2018-08-25T02:20:46.264Z,101150.73
2018-08-25T02:21:46.555Z,101149.89
2018-08-25T02:22:46.854Z,101149.56
2018-08-25T02:23:47.111Z,101149.09
2018-08-25T02:24:47.474Z,101149.35
2018-08-25T02:25:47.667Z,101149.03
2018-08-25T02:26:47.975Z,101148.73
2018-08-25T02:27:48.230Z,101148.41
2018-08-25T02:28:48.481Z,101148.11
2018-08-25T02:29:48.903Z,101148.16
2018-08-25T02:30:49.268Z,101148.16
2018-08-25T02:31:49.338Z,101148.16
2018-08-25T02:32:49.517Z,101147.70
2018-08-25T02:33:49.512Z,101147.19
2018-08-25T02:34:50.818Z,101146.94
2018-08-25T02:35:51.050Z,101146.27
2018-08-25T02:36:51.326Z,101145.63
2018-08-25T02:37:51.640Z,101145.05
2018-08-25T02:38:51.933Z,101143.89
2018-08-25T02:39:51.104Z,101143.22
2018-08-25T02:40:52.381Z,101142.67
2018-08-25T02:41:52.727Z,101142.17
2018-08-25T02:42:53.007Z,101142.17
2018-08-25T02:43:53.266Z,101141.83
2018-08-25T02:44:53.547Z,101140.98
2018-08-25T02:45:53.754Z,101140.30
2018-08-25T02:46:54.079Z,101139.79
2018-08-25T02:47:54.442Z,101139.45
2018-08-25T02:48:54.724Z,101139.03
2018-08-25T02:49:55.055Z,101138.69
2018-08-25T02:50:55.769Z,101137.79
2018-08-25T02:51:56.127Z,101136.43
2018-08-25T02:52:56.535Z,101134.90
2018-08-25T02:53:56.793Z,101134.44
2018-08-25T02:54:57.133Z,101133.74
2018-08-25T02:55:57.793Z,101133.14
2018-08-25T02:56:58.083Z,101132.34
2018-08-25T02:57:06.791Z,101111.62
2018-08-25T02:58:08.148Z,101111.23
2018-08-25T02:59:08.976Z,101111.23
2018-08-25T03:00:09.011Z,101111.28
2018-08-25T03:01:09.620Z,101110.72
2018-08-25T03:02:09.916Z,101111.33
2018-08-25T03:03:10.206Z,101111.75
2018-08-25T03:04:10.482Z,101111.45
2018-08-25T03:05:10.904Z,101111.45
2018-08-25T03:06:11.328Z,101111.50
2018-08-25T03:07:11.619Z,101111.58
2018-08-25T03:08:12.212Z,101111.66
2018-08-25T03:09:12.556Z,101111.06
2018-08-25T03:10:12.843Z,101110.50
2018-08-25T03:11:13.095Z,101110.03
2018-08-25T03:12:13.397Z,101109.50
2018-08-25T03:13:14.268Z,101108.78
2018-08-25T03:14:14.571Z,101108.43
2018-08-25T03:15:14.850Z,101108.13
2018-08-25T03:16:15.237Z,101107.40
2018-08-25T03:17:15.457Z,101106.88
2018-08-25T03:18:15.723Z,101106.48
2018-08-25T03:19:16.105Z,101106.19
2018-08-25T03:20:16.933Z,101105.41
2018-08-25T03:21:17.282Z,101104.66
2018-08-25T03:22:17.519Z,101104.06
2018-08-25T03:23:17.852Z,101103.66
2018-08-25T03:24:17.022Z,101103.09
2018-08-25T03:25:18.050Z,101102.53
2018-08-25T03:26:18.512Z,101102.30
2018-08-25T03:27:18.857Z,101101.73
2018-08-25T03:28:19.329Z,101101.67
2018-08-25T03:29:19.818Z,101101.37
2018-08-25T03:30:20.137Z,101101.56
2018-08-25T03:31:20.491Z,101100.33
2018-08-25T03:32:21.048Z,101099.88
2018-08-25T03:33:21.351Z,101099.28
2018-08-25T03:34:22.684Z,101098.88
2018-08-25T03:35:22.155Z,101098.78
2018-08-25T03:36:22.768Z,101097.47
2018-08-25T03:37:22.974Z,101096.94
2018-08-25T03:38:23.183Z,101096.25
2018-08-25T03:39:23.476Z,101095.94
2018-08-25T03:39:31.567Z,101088.82
2018-08-25T03:40:32.944Z,101088.09
2018-08-25T03:41:33.207Z,101088.31
2018-08-25T03:42:33.716Z,101087.97
2018-08-25T03:43:34.032Z,101087.70
2018-08-25T03:44:34.291Z,101087.78
2018-08-25T03:45:34.954Z,101087.61
2018-08-25T03:46:35.567Z,101087.61
2018-08-25T03:47:35.968Z,101087.28
2018-08-25T03:48:36.314Z,101087.52
2018-08-25T03:49:37.104Z,101087.91
2018-08-25T03:50:37.483Z,101087.90
2018-08-25T03:51:37.818Z,101087.59
2018-08-25T03:52:38.034Z,101087.20
2018-08-25T03:53:38.256Z,101086.60
2018-08-25T03:54:38.477Z,101086.08
2018-08-25T03:55:38.858Z,101085.52
2018-08-25T03:56:39.122Z,101084.92
2018-08-25T03:57:39.388Z,101084.75
2018-08-25T03:58:40.035Z,101084.33
2018-08-25T03:59:40.464Z,101084.13
2018-08-25T04:00:40.865Z,101083.41
2018-08-25T04:01:41.162Z,101083.08
2018-08-25T04:02:40.375Z,101083.01
2018-08-25T04:03:41.195Z,101082.71
2018-08-25T04:04:42.532Z,101082.08
2018-08-25T04:05:42.807Z,101081.06
2018-08-25T04:06:43.125Z,101080.20
2018-08-25T04:07:43.379Z,101079.11
2018-08-25T04:08:43.673Z,101078.31
2018-08-25T04:09:44.082Z,101077.09
2018-08-25T04:10:44.517Z,101075.70
2018-08-25T04:11:44.816Z,101074.86
2018-08-25T04:12:45.109Z,101073.55
2018-08-25T04:13:45.620Z,101072.32
2018-08-25T04:14:45.936Z,101071.31
2018-08-25T04:15:45.140Z,101070.34
2018-08-25T04:16:45.531Z,101069.42
2018-08-25T04:17:46.730Z,101067.85
2018-08-25T04:18:47.007Z,101066.54
2018-08-25T04:19:47.205Z,101065.69
2018-08-25T04:20:48.037Z,101064.84
2018-08-25T04:21:48.702Z,101064.16
2018-08-25T04:22:48.967Z,101063.72
2018-08-25T04:23:49.220Z,101062.53
2018-08-25T04:24:49.473Z,101061.68
2018-08-25T04:25:49.713Z,101061.17
2018-08-25T04:26:50.037Z,101060.58
2018-08-25T04:26:58.129Z,101047.85
2018-08-25T04:27:59.315Z,101047.61
2018-08-25T04:29:00.295Z,101047.95
2018-08-25T04:30:00.726Z,101048.41
2018-08-25T04:31:00.977Z,101048.58
2018-08-25T04:32:01.222Z,101048.75
2018-08-25T04:33:01.432Z,101049.77
2018-08-25T04:34:01.685Z,101050.45
2018-08-25T04:35:01.866Z,101050.28
2018-08-25T04:36:02.209Z,101050.88
2018-08-25T04:37:02.437Z,101050.90
2018-08-25T04:38:02.973Z,101051.50
2018-08-25T04:39:03.151Z,101051.52
2018-08-25T04:40:03.479Z,101051.98
2018-08-25T04:41:04.439Z,101052.33
2018-08-25T04:42:04.210Z,101052.20
2018-08-25T04:43:05.621Z,101052.19
2018-08-25T04:44:05.828Z,101052.68
2018-08-25T04:45:06.385Z,101053.08
2018-08-25T04:46:06.675Z,101053.21
2018-08-25T04:47:06.928Z,101053.34
2018-08-25T04:48:07.422Z,101054.08
2018-08-25T04:49:08.233Z,101054.34
2018-08-25T04:50:08.707Z,101054.52
2018-08-25T04:51:09.009Z,101055.75
2018-08-25T04:52:09.310Z,101056.11
2018-08-25T04:53:09.577Z,101056.66
2018-08-25T04:54:09.600Z,101057.34
2018-08-25T04:55:10.300Z,101057.61
2018-08-25T04:56:09.442Z,101058.20
2018-08-25T04:57:10.799Z,101058.45
2018-08-25T04:58:11.250Z,101058.62
2018-08-25T04:59:11.491Z,101059.08
2018-08-25T05:00:11.741Z,101058.91
2018-08-25T05:01:12.047Z,101059.23
2018-08-25T05:02:12.311Z,101059.97
2018-08-25T05:03:12.594Z,101061.31
2018-08-25T05:04:12.848Z,101061.48
2018-08-25T05:05:13.460Z,101062.50
2018-08-25T05:06:13.715Z,101063.62
2018-08-25T05:07:14.011Z,101064.64
2018-08-25T05:08:14.434Z,101065.48
2018-08-25T05:09:14.470Z,101066.03
2018-08-25T05:10:14.882Z,101066.55
2018-08-25T05:11:15.327Z,101066.71
2018-08-25T05:11:24.150Z,101069.59
2018-08-25T05:12:25.205Z,101068.83
2018-08-25T05:13:25.590Z,101068.73
2018-08-25T05:14:25.847Z,101068.91
2018-08-25T05:15:26.073Z,101068.66
2018-08-25T05:16:26.226Z,101068.75
2018-08-25T05:17:26.561Z,101068.58
2018-08-25T05:18:26.912Z,101068.50
2018-08-25T05:19:26.495Z,101068.16
2018-08-25T05:20:27.868Z,101067.99
2018-08-25T05:21:28.165Z,101067.61
2018-08-25T05:22:28.443Z,101067.19
2018-08-25T05:23:30.136Z,101066.77
2018-08-25T05:24:29.460Z,101066.34
2018-08-25T05:25:29.781Z,101065.83
2018-08-25T05:26:30.080Z,101065.31
2018-08-25T05:27:30.440Z,101065.31
2018-08-25T05:28:30.736Z,101064.97
2018-08-25T05:29:30.951Z,101064.88
2018-08-25T05:30:31.137Z,101064.46
2018-08-25T05:31:31.974Z,101064.30
2018-08-25T05:32:32.147Z,101064.43
2018-08-25T05:33:32.536Z,101063.73
2018-08-25T05:34:32.828Z,101063.32
2018-08-25T05:35:33.210Z,101063.13
2018-08-25T05:36:33.532Z,101063.96
2018-08-25T05:37:33.856Z,101063.81
2018-08-25T05:38:34.127Z,101063.50
2018-08-25T05:39:34.360Z,101063.15
2018-08-25T05:40:33.614Z,101063.44
2018-08-25T05:41:34.926Z,101062.96
2018-08-25T05:42:35.267Z,101062.36
2018-08-25T05:43:35.620Z,101062.09
2018-08-25T05:44:35.960Z,101061.70
2018-08-25T05:45:36.019Z,101062.03
2018-08-25T05:46:36.539Z,101062.30
2018-08-25T05:47:37.187Z,101062.25
2018-08-25T05:48:37.852Z,101061.99
2018-08-25T05:49:38.228Z,101062.15
2018-08-25T05:50:38.599Z,101062.52
2018-08-25T05:51:39.032Z,101062.43
2018-08-25T05:52:39.474Z,101061.75
2018-08-25T05:53:39.685Z,101061.15
2018-08-25T05:54:40.481Z,101060.72
2018-08-25T05:55:40.729Z,101059.86
2018-08-25T05:55:48.802Z,101050.55
2018-08-25T05:56:50.104Z,101049.97
2018-08-25T05:57:50.466Z,101049.41
2018-08-25T05:58:50.720Z,101049.23
2018-08-25T05:59:50.981Z,101049.19
2018-08-25T06:00:51.274Z,101049.56
2018-08-25T06:01:51.765Z,101050.14
2018-08-25T06:02:52.129Z,101049.97
2018-08-25T06:03:52.453Z,101051.04
2018-08-25T06:04:52.693Z,101051.63
2018-08-25T06:05:52.997Z,101052.05
2018-08-25T06:06:52.220Z,101052.77
2018-08-25T06:07:53.458Z,101053.53
2018-08-25T06:08:53.706Z,101053.87
2018-08-25T06:09:53.948Z,101054.89
2018-08-25T06:10:54.185Z,101055.23
2018-08-25T06:11:54.758Z,101056.58
2018-08-25T06:12:55.112Z,101057.65
2018-08-25T06:13:55.625Z,101058.41
2018-08-25T06:14:55.956Z,101059.34
2018-08-25T06:15:56.303Z,101060.02
2018-08-25T06:16:56.686Z,101060.94
2018-08-25T06:17:56.939Z,101061.67
2018-08-25T06:18:57.247Z,101062.68
2018-08-25T06:19:57.755Z,101063.44
2018-08-25T06:20:58.043Z,101063.66
2018-08-25T06:21:58.330Z,101065.22
2018-08-25T06:22:59.193Z,101066.66
2018-08-25T06:23:59.557Z,101067.59
2018-08-25T06:24:59.770Z,101068.27
2018-08-25T06:26:00.071Z,101070.05
2018-08-25T06:27:00.341Z,101070.61
2018-08-25T06:28:00.596Z,101071.53
2018-08-25T06:29:00.927Z,101072.38
2018-08-25T06:30:01.205Z,101073.33
2018-08-25T06:31:01.599Z,101074.94
2018-08-25T06:32:02.103Z,101075.78
2018-08-25T06:33:02.397Z,101075.83
2018-08-25T06:34:02.676Z,101077.53
2018-08-25T06:35:03.117Z,101077.92
2018-08-25T06:36:03.449Z,101078.69
2018-08-25T06:37:03.809Z,101079.80
2018-08-25T06:38:04.126Z,101080.55
2018-08-25T06:39:04.441Z,101081.23
2018-08-25T06:40:04.766Z,101082.42
2018-08-25T06:41:05.110Z,101082.86
2018-08-25T06:41:13.847Z,101100.77
2018-08-25T06:42:15.259Z,101100.69
2018-08-25T06:43:15.787Z,101101.16
2018-08-25T06:44:16.362Z,101101.50
2018-08-25T06:45:16.986Z,101101.41
2018-08-25T06:46:17.342Z,101100.91
2018-08-25T06:47:17.884Z,101100.91
2018-08-25T06:48:18.698Z,101100.81
2018-08-25T06:49:18.958Z,101100.64
2018-08-25T06:50:19.418Z,101100.52
2018-08-25T06:51:19.842Z,101100.97
2018-08-25T06:52:20.578Z,101101.20
2018-08-25T06:53:20.987Z,101102.08
2018-08-25T06:54:20.289Z,101102.20
2018-08-25T06:55:21.675Z,101102.15
2018-08-25T06:56:22.058Z,101102.94
2018-08-25T06:57:22.572Z,101102.98
2018-08-25T06:58:23.053Z,101103.11
2018-08-25T06:59:23.593Z,101103.19
2018-08-25T07:00:23.226Z,101103.91
2018-08-25T07:01:24.513Z,101105.08
2018-08-25T07:02:24.927Z,101105.84
2018-08-25T07:03:25.267Z,101106.98
2018-08-25T07:04:25.588Z,101108.59
2018-08-25T07:05:25.865Z,101109.98
2018-08-25T07:06:26.124Z,101110.75
2018-08-25T07:07:26.564Z,101112.46
2018-08-25T07:08:26.814Z,101114.72
2018-08-25T07:09:27.162Z,101115.99
2018-08-25T07:10:27.449Z,101118.34
2018-08-25T07:11:27.902Z,101120.00
2018-08-25T07:12:28.296Z,101121.29
2018-08-25T07:13:28.379Z,101122.95
2018-08-25T07:14:29.761Z,101124.37
2018-08-25T07:15:28.310Z,101125.69
2018-08-25T07:16:29.934Z,101127.77
2018-08-25T07:17:30.220Z,101128.80
2018-08-25T07:18:30.460Z,101130.88
2018-08-25T07:19:31.033Z,101132.59
2018-08-25T07:20:31.759Z,101134.16
2018-08-25T07:21:32.391Z,101135.45
2018-08-25T07:22:32.591Z,101136.97
2018-08-25T07:23:32.832Z,101138.16
2018-08-25T07:24:33.092Z,101139.48
2018-08-25T07:25:33.349Z,101140.73
2018-08-25T07:26:33.808Z,101142.27
2018-08-25T07:27:34.051Z,101143.62
2018-08-25T07:27:42.759Z,101169.06
2018-08-25T07:28:44.010Z,101168.64
2018-08-25T07:29:44.644Z,101168.55
2018-08-25T07:30:45.133Z,101168.21
2018-08-25T07:31:45.462Z,101168.67
2018-08-25T07:32:45.662Z,101168.30
2018-08-25T07:33:45.884Z,101169.26
2018-08-25T07:34:46.208Z,101169.55
2018-08-25T07:35:46.579Z,101170.13
2018-08-25T07:36:46.895Z,101170.77
2018-08-25T07:37:47.202Z,101171.48
2018-08-25T07:38:47.686Z,101172.07
2018-08-25T07:39:48.330Z,101172.37
2018-08-25T07:40:48.619Z,101173.30
2018-08-25T07:41:48.884Z,101173.97
2018-08-25T07:42:49.128Z,101174.86
2018-08-25T07:43:49.353Z,101175.08
2018-08-25T07:44:49.510Z,101175.58
2018-08-25T07:45:49.697Z,101176.05
2018-08-25T07:46:50.030Z,101176.81
2018-08-25T07:47:50.100Z,101177.33
2018-08-25T07:48:50.761Z,101177.79
2018-08-25T07:49:50.983Z,101177.95
2018-08-25T07:50:51.249Z,101179.09
2018-08-25T07:51:51.516Z,101179.30
2018-08-25T07:52:51.742Z,101179.66
2018-08-25T07:53:51.535Z,101180.00
2018-08-25T07:54:51.918Z,101180.44
2018-08-25T07:55:53.187Z,101180.59
2018-08-25T07:56:53.551Z,101181.17
2018-08-25T07:57:53.917Z,101181.74
2018-08-25T07:58:54.326Z,101182.48
2018-08-25T07:59:54.992Z,101183.60
2018-08-25T08:00:55.284Z,101184.17
2018-08-25T08:01:55.555Z,101185.09
2018-08-25T08:02:55.801Z,101185.52
2018-08-25T08:03:56.441Z,101185.52
2018-08-25T08:04:57.264Z,101186.30
2018-08-25T08:05:57.535Z,101187.09
2018-08-25T08:06:57.845Z,101187.44
2018-08-25T08:07:58.065Z,101188.29
2018-08-25T08:08:58.327Z,101188.20
2018-08-25T08:09:58.637Z,101188.20
2018-08-25T08:10:59.193Z,101188.18
2018-08-25T08:11:59.449Z,101189.09
2018-08-25T08:12:59.260Z,101189.74
2018-08-25T08:13:58.652Z,101190.42
2018-08-25T08:14:59.935Z,101190.50
2018-08-25T08:15:08.789Z,101197.55
2018-08-25T08:16:08.880Z,101196.70
2018-08-25T08:17:10.210Z,101195.80
2018-08-25T08:18:10.656Z,101195.34
2018-08-25T08:19:10.938Z,101195.39
2018-08-25T08:20:11.161Z,101195.38
2018-08-25T08:21:11.421Z,101194.89
2018-08-25T08:22:12.342Z,101194.16
2018-08-25T08:23:12.402Z,101193.55
2018-08-25T08:24:12.728Z,101192.98
2018-08-25T08:25:13.017Z,101192.98
2018-08-25T08:26:13.365Z,101193.03
2018-08-25T08:27:13.662Z,101193.47
2018-08-25T08:28:13.987Z,101193.80
2018-08-25T08:29:14.338Z,101194.03
2018-08-25T08:30:14.741Z,101194.75
2018-08-25T08:31:17.887Z,101195.81
2018-08-25T08:32:15.696Z,101196.29
2018-08-25T08:33:16.038Z,101196.89
2018-08-25T08:34:16.313Z,101197.26
2018-08-25T08:35:16.514Z,101198.17
2018-08-25T08:36:16.780Z,101198.81
2018-08-25T08:37:17.562Z,101198.37
2018-08-25T08:38:17.924Z,101198.37
2018-08-25T08:39:18.707Z,101198.83
2018-08-25T08:40:18.072Z,101199.36
2018-08-25T08:41:19.461Z,101200.41
2018-08-25T08:42:19.901Z,101200.88
2018-08-25T08:43:19.071Z,101201.20
2018-08-25T08:44:20.482Z,101201.36
2018-08-25T08:45:21.001Z,101202.63
2018-08-25T08:46:20.275Z,101203.82
2018-08-25T08:47:21.606Z,101204.83
2018-08-25T08:48:21.944Z,101206.65
2018-08-25T08:49:22.175Z,101207.81
2018-08-25T08:50:22.696Z,101209.07
2018-08-25T08:51:22.003Z,101210.25
2018-08-25T08:52:23.269Z,101211.64
2018-08-25T08:53:23.549Z,101212.51
2018-08-25T08:54:23.864Z,101214.01
2018-08-25T08:55:24.214Z,101215.08
2018-08-25T08:56:24.311Z,101215.77
2018-08-25T08:57:24.613Z,101217.38
2018-08-25T08:58:24.996Z,101219.16
2018-08-25T08:59:24.325Z,101219.91
2018-08-25T09:00:25.673Z,101221.24
2018-08-25T09:00:34.421Z,101246.11
2018-08-25T09:01:35.693Z,101245.13
2018-08-25T09:02:36.206Z,101245.34
2018-08-25T09:03:36.726Z,101245.17
2018-08-25T09:04:37.202Z,101245.28
2018-08-25T09:05:37.483Z,101244.78
2018-08-25T09:06:38.105Z,101244.31
2018-08-25T09:07:38.425Z,101244.01
2018-08-25T09:08:38.974Z,101244.08
2018-08-25T09:09:39.496Z,101243.98
2018-08-25T09:10:39.833Z,101243.88
2018-08-25T09:11:40.495Z,101243.76
2018-08-25T09:12:40.325Z,101243.87
2018-08-25T09:13:41.605Z,101244.59
2018-08-25T09:14:41.908Z,101244.92
2018-08-25T09:15:42.002Z,101244.66
2018-08-25T09:16:42.307Z,101245.00
2018-08-25T09:17:42.650Z,101245.33
2018-08-25T09:18:42.933Z,101245.67
2018-08-25T09:19:43.247Z,101245.95
2018-08-25T09:20:43.780Z,101246.44
2018-08-25T09:21:44.114Z,101245.95
2018-08-25T09:22:44.448Z,101246.36
2018-08-25T09:23:44.800Z,101245.94
2018-08-25T09:24:45.126Z,101246.14
2018-08-25T09:25:45.520Z,101246.02
2018-08-25T09:26:45.909Z,101246.18
2018-08-25T09:27:46.131Z,101246.82
2018-08-25T09:28:46.433Z,101246.80
2018-08-25T09:29:46.606Z,101247.14
2018-08-25T09:30:46.819Z,101246.03
2018-08-25T09:31:47.426Z,101246.39
2018-08-25T09:32:48.189Z,101246.61
2018-08-25T09:33:48.439Z,101246.23
2018-08-25T09:34:48.683Z,101246.81
2018-08-25T09:35:49.046Z,101246.98
2018-08-25T09:36:48.302Z,101247.05
2018-08-25T09:37:48.524Z,101246.56
2018-08-25T09:38:49.817Z,101246.44
2018-08-25T09:39:50.038Z,101246.59
2018-08-25T09:40:50.589Z,101246.46
2018-08-25T09:41:50.950Z,101246.25
2018-08-25T09:42:50.069Z,101245.95
2018-08-25T09:43:51.273Z,101245.64
2018-08-25T09:44:51.619Z,101245.59
2018-08-25T09:45:51.924Z,101244.53
2018-08-25T09:46:52.265Z,101244.81
2018-08-25T09:47:02.306Z,101254.73
2018-08-25T09:48:02.390Z,101253.97
2018-08-25T09:49:03.621Z,101254.52
2018-08-25T09:50:03.885Z,101253.89
2018-08-25T09:51:04.148Z,101253.18
2018-08-25T09:52:04.420Z,101252.80
2018-08-25T09:53:05.044Z,101252.14
2018-08-25T09:54:05.264Z,101251.86
2018-08-25T09:55:05.562Z,101251.36
2018-08-25T09:56:05.937Z,101249.83
2018-08-25T09:57:06.223Z,101249.17
2018-08-25T09:58:06.470Z,101247.59
2018-08-25T09:59:06.759Z,101246.77
2018-08-25T10:00:06.010Z,101246.42
2018-08-25T10:01:07.497Z,101246.39
2018-08-25T10:02:07.531Z,101245.76
2018-08-25T10:03:07.777Z,101246.19
2018-08-25T10:04:08.140Z,101245.97
2018-08-25T10:05:08.621Z,101246.42
2018-08-25T10:06:07.812Z,101245.80
2018-08-25T10:07:09.081Z,101245.41
2018-08-25T10:08:09.326Z,101245.06
2018-08-25T10:09:09.580Z,101244.53
2018-08-25T10:10:10.072Z,101243.56
2018-08-25T10:11:10.352Z,101243.37
2018-08-25T10:12:10.654Z,101243.04
2018-08-25T10:13:10.975Z,101242.38
2018-08-25T10:14:11.380Z,101241.38
2018-08-25T10:15:11.791Z,101241.05
2018-08-25T10:16:12.133Z,101240.98
2018-08-25T10:17:12.397Z,101240.93
2018-08-25T10:18:12.654Z,101240.87
2018-08-25T10:19:13.015Z,101240.63
2018-08-25T10:20:13.349Z,101240.95
2018-08-25T10:21:13.658Z,101241.08
2018-08-25T10:22:13.912Z,101240.55
2018-08-25T10:23:14.246Z,101239.84
2018-08-25T10:24:14.462Z,101239.61
2018-08-25T10:25:14.979Z,101239.04
2018-08-25T10:26:15.222Z,101238.67
2018-08-25T10:27:15.427Z,101238.49
2018-08-25T10:28:15.684Z,101237.92
2018-08-25T10:29:15.977Z,101238.26
2018-08-25T10:30:16.252Z,101238.33
2018-08-25T10:31:16.663Z,101238.66
2018-08-25T10:32:16.927Z,101238.61
2018-08-25T10:32:25.669Z,101242.15
2018-08-25T10:33:26.864Z,101241.55
2018-08-25T10:34:27.108Z,101241.30
2018-08-25T10:35:27.371Z,101241.31
2018-08-25T10:36:27.949Z,101240.94
2018-08-25T10:37:29.169Z,101240.27
2018-08-25T10:38:28.209Z,101239.84
2018-08-25T10:39:29.028Z,101239.66
2018-08-25T10:40:29.283Z,101238.80
2018-08-25T10:41:29.570Z,101238.13
2018-08-25T10:42:29.871Z,101237.65
2018-08-25T10:43:30.185Z,101236.95
2018-08-25T10:44:31.146Z,101236.86
2018-08-25T10:45:31.431Z,101236.78
2018-08-25T10:46:32.090Z,101236.23
2018-08-25T10:47:32.322Z,101235.30
2018-08-25T10:48:32.643Z,101235.21
2018-08-25T10:49:33.082Z,101235.31
2018-08-25T10:50:33.307Z,101235.55
2018-08-25T10:51:33.906Z,101235.33
2018-08-25T10:52:34.097Z,101235.46
2018-08-25T10:53:34.447Z,101235.59
2018-08-25T10:54:35.098Z,101235.48
2018-08-25T10:55:36.256Z,101235.73
2018-08-25T10:56:35.615Z,101235.91
2018-08-25T10:57:36.064Z,101235.53
2018-08-25T10:58:36.561Z,101235.84
2018-08-25T10:59:36.881Z,101235.17
2018-08-25T11:00:37.277Z,101235.25
2018-08-25T11:01:36.603Z,101235.30
2018-08-25T11:02:37.864Z,101235.24
2018-08-25T11:03:38.235Z,101235.66
2018-08-25T11:04:38.506Z,101235.75
2018-08-25T11:05:38.761Z,101235.73
2018-08-25T11:06:39.141Z,101236.25
2018-08-25T11:07:39.597Z,101236.11
2018-08-25T11:08:39.936Z,101236.77
2018-08-25T11:09:39.158Z,101237.09
2018-08-25T11:10:40.621Z,101237.17
2018-08-25T11:11:40.866Z,101238.03
2018-08-25T11:12:41.065Z,101237.95
2018-08-25T11:13:41.334Z,101238.68
2018-08-25T11:14:41.726Z,101238.98
2018-08-25T11:14:50.555Z,101250.72
2018-08-25T11:15:51.846Z,101249.95